Ramona, OK

3:26 AM CST on November 24, 2014 (GMT -0600)
Tulsa International | Change Station
CLOSE
Current Station
Airport
Location: Tulsa,
Elevation: 676 ft
Nearby Weather Stations

Elev 676 ft 36.20 °N, 95.89 °W | Updated 33 minutes ago

Partly Cloudy
Partly Cloudy
42 °F
Feels Like 36 °F
N
12
Wind Variable Wind from WNW

Today
High -- | Low -- °F
--% Chance of Precip.
Yesterday
High -- | Low -- °F
Precip. -- in
7:10 AM 5:10 PM
Waxing Crescent, 4% visible
Pressure 29.76 in
Visibility 10.0 miles
Clouds Mostly Cloudy 20000 ft
Windchill 36 °F
Dew Point 35 °F
Humidity 76%
Rainfall 0.00 in
Snow Depth Not available.
UV 0 out of 12
Pollen 2.40 out of 12
Air Quality Not available.
Flu Activity Not available.
METAR KTUL 240853Z 29010KT 10SM BKN200 06/02 A2977 RMK AO2 SLP077 T00560017 51028

More Conditions Fewer Conditions

Pressure 29.76 in
Visibility 10.0 miles
Clouds Mostly Cloudy 20000 ft
Windchill 36 °F
Dew Point 35 °F
Humidity 76%
Rainfall 0.00 in
Snow Depth Not available.
UV 0 out of 12
Pollen 2.40 out of 12
Air Quality Not available.
Flu Activity Not available.
METAR KTUL 240853Z 29010KT 10SM BKN200 06/02 A2977 RMK AO2 SLP077 T00560017 51028

More Conditions Fewer Conditions

10-Day Weather Forecast

Almanac

Astronomy

Nov. 24, 2014 Rise Set
Actual Time
Civil Twilight
Nautical Twilight
Astronomical Twilight
Moon
Length of Visible Light
Length of Day
Tomorrow will be .
, % of the Moon is Illuminated

Today's Extremes

State Highs State Lows

Community

WunderPhotos

Upload Photos

1,773,294 photos uploaded!

WunderBlogs® & News

Nearby

Air Quality

  Air Quality AQ Index Pollutant
Not available.

Snow Depth

Station Depth Elevation

Earthquake Activity

City Distance Mag. Time & Date
Minimum magnitude displayed is 2.5.

Coastal Water Temperatures

Place Temperature

Nearby Weather Stations